Cherry Grove, Oregon
Current Conditions -  °F | °C
As of 12:53 PM on Friday 24 Oct 2014 (Local Time) from KHIO Reporting Station
Clear Clear  
Wind Chill: 12°   Ceiling: Unl
Heat Index: 12°   Visibility: 7mi
Dew Point: 11°   Wind: 0mph
Humidity: 90%   Direction: NA
Pressure: 29.93"   Gusts: NA
Location:  45.45°N, 123.24°W
Report Text: KHIO 241953Z 00000KT 7SM CLR 12/11 A2993 RMK AO2 SLP133 HZ T01220106
Loading
Personal Weather Stations






























Interactive Weather Map
Tropical Storm Tracking
New forecast layout! Learn more

10-Day Weather Forecast

Advertisements
Track Severe Weather on mobile